Time;durP1;ratioP1;P1;durP2;ratioP2;P2;SDS_P1;SDS_P2;PMS_P1;PMS_P2;Temp;Humidity;BMP_temperature;BMP_pressure;BME280_temperature;BME280_humidity;BME280_pressure;Samples;Min_cycle;Max_cycle;Signal;HPM_P1;HPM_P2
2023/10/21 00:01:37;;;;;;;12.85;3.58;;;22.90;80.80;;;;;;4866131;23;20049;-78
2023/10/21 00:04:03;;;;;;;26.65;4.00;;;22.90;81.20;;;;;;4864976;29;20029;-78
2023/10/21 00:06:29;;;;;;;14.38;4.25;;;22.90;81.10;;;;;;4881532;29;20425;-78
2023/10/21 00:08:55;;;;;;;11.60;3.72;;;22.80;81.30;;;;;;4865032;29;20380;-82
2023/10/21 00:11:20;;;;;;;12.88;3.58;;;22.90;81.00;;;;;;4881653;29;20032;-81
2023/10/21 00:13:46;;;;;;;13.93;4.13;;;22.90;81.40;;;;;;4881506;29;20032;-81
2023/10/21 00:16:12;;;;;;;8.77;3.88;;;23.00;81.60;;;;;;4881263;29;20228;-79
2023/10/21 00:18:38;;;;;;;14.55;4.38;;;23.00;81.00;;;;;;4864316;29;20091;-80
2023/10/21 00:21:04;;;;;;;13.73;4.18;;;23.10;80.80;;;;;;4863975;29;20101;-81
2023/10/21 00:23:31;;;;;;;12.15;4.32;;;23.20;80.40;;;;;;4881094;29;20485;-80
2023/10/21 00:26:01;;;;;;;15.07;4.43;;;23.20;80.00;;;;;;4881102;29;20101;-81
2023/10/21 00:28:27;;;;;;;19.90;3.92;;;23.20;80.00;;;;;;4881156;29;20065;-78
2023/10/21 00:30:53;;;;;;;11.65;3.92;;;23.30;80.10;;;;;;4862581;29;20060;-79
2023/10/21 00:33:19;;;;;;;16.55;4.22;;;23.40;80.10;;;;;;4880873;29;20043;-77
2023/10/21 00:35:45;;;;;;;19.13;4.38;;;23.50;79.80;;;;;;4881221;29;20462;-78
2023/10/21 00:38:12;;;;;;;11.25;4.13;;;23.60;79.60;;;;;;4848956;29;20133;-79
2023/10/21 00:40:38;;;;;;;11.50;3.70;;;23.50;79.80;;;;;;4880983;29;20029;-81
2023/10/21 00:43:04;;;;;;;15.85;4.07;;;23.50;79.70;;;;;;4864019;29;20031;-78
2023/10/21 00:45:30;;;;;;;17.38;4.50;;;23.50;79.90;;;;;;4880875;29;20396;-76
2023/10/21 00:47:56;;;;;;;10.95;3.35;;;23.60;80.10;;;;;;4864199;29;20116;-78
2023/10/21 00:50:22;;;;;;;12.63;3.20;;;23.70;80.30;;;;;;4863427;29;20037;-80
2023/10/21 00:52:49;;;;;;;12.95;3.65;;;23.80;79.60;;;;;;4864254;29;20040;-82
2023/10/21 00:55:15;;;;;;;12.60;3.75;;;23.90;79.60;;;;;;4864124;29;20029;-79
2023/10/21 00:57:41;;;;;;;14.25;3.53;;;23.90;78.90;;;;;;4864088;29;20037;-79
2023/10/21 01:00:16;;;;;;;15.30;3.97;;;23.90;79.00;;;;;;4880408;29;20059;-81
2023/10/21 01:02:42;;;;;;;12.73;3.58;;;24.00;78.90;;;;;;4880201;29;20053;-78
2023/10/21 01:05:09;;;;;;;16.55;3.38;;;24.00;78.80;;;;;;4863884;29;20025;-81
2023/10/21 01:07:35;;;;;;;18.63;4.30;;;24.00;78.80;;;;;;4880475;29;20037;-81
2023/10/21 01:10:04;;;;;;;12.75;3.45;;;24.10;78.90;;;;;;4863818;29;20025;-80
2023/10/21 01:12:30;;;;;;;10.52;3.47;;;24.10;78.30;;;;;;4880331;29;20033;-79
2023/10/21 01:14:56;;;;;;;19.00;4.43;;;24.30;78.20;;;;;;4880046;29;20025;-79
2023/10/21 01:17:22;;;;;;;14.02;4.35;;;24.30;78.30;;;;;;4880236;29;20169;-79
2023/10/21 01:19:48;;;;;;;12.35;3.30;;;24.30;78.30;;;;;;4880047;29;20029;-80
2023/10/21 01:22:15;;;;;;;12.70;3.92;;;24.30;78.50;;;;;;4880406;29;20032;-79
2023/10/21 01:24:41;;;;;;;17.52;4.43;;;24.40;78.10;;;;;;4863200;29;20037;-78
2023/10/21 01:27:07;;;;;;;11.30;3.90;;;24.30;78.10;;;;;;4880309;29;20081;-76
2023/10/21 01:29:33;;;;;;;17.80;4.05;;;24.30;78.20;;;;;;4879722;29;20108;-81
2023/10/21 01:31:59;;;;;;;14.13;4.20;;;24.40;78.30;;;;;;4847910;29;20032;-86
2023/10/21 01:34:25;;;;;;;15.05;3.85;;;24.40;77.90;;;;;;4862338;29;20097;-82
2023/10/21 01:36:52;;;;;;;26.48;4.80;;;24.50;78.00;;;;;;4880086;29;20540;-83
2023/10/21 01:39:18;;;;;;;11.98;4.20;;;24.50;77.90;;;;;;4879878;29;20036;-79
2023/10/21 01:41:44;;;;;;;13.70;3.60;;;24.50;77.70;;;;;;4863305;29;20032;-79
2023/10/21 01:44:10;;;;;;;12.82;3.63;;;24.50;77.50;;;;;;4877988;29;20033;-82
2023/10/21 01:46:37;;;;;;;13.13;3.50;;;24.50;78.00;;;;;;4862949;29;20057;-79
2023/10/21 01:49:03;;;;;;;16.02;4.35;;;24.50;77.90;;;;;;4847312;29;20036;-79
2023/10/21 01:51:29;;;;;;;9.48;3.50;;;24.50;77.60;;;;;;4844529;29;20042;-77
2023/10/21 01:53:55;;;;;;;8.90;3.63;;;24.50;77.20;;;;;;4863967;29;20036;-83
2023/10/21 01:56:21;;;;;;;22.45;3.80;;;24.40;77.50;;;;;;4862925;29;20040;-78
2023/10/21 01:58:47;;;;;;;15.77;4.57;;;24.40;77.80;;;;;;4869327;29;20029;-79
2023/10/21 02:01:13;;;;;;;10.27;3.13;;;24.30;77.60;;;;;;4856526;29;20468;-80
2023/10/21 02:03:43;;;;;;;13.13;3.90;;;24.30;77.90;;;;;;4861861;29;20393;-77
2023/10/21 02:06:09;;;;;;;17.35;3.78;;;24.20;78.30;;;;;;4862852;29;20036;-82
2023/10/21 02:08:35;;;;;;;13.18;3.60;;;24.10;77.90;;;;;;4879310;29;20025;-79
2023/10/21 02:11:02;;;;;;;14.90;3.58;;;24.10;78.20;;;;;;4856611;29;20033;-76
2023/10/21 02:13:31;;;;;;;13.57;4.15;;;24.10;78.20;;;;;;4865776;29;20116;-79
2023/10/21 02:15:58;;;;;;;11.27;3.30;;;24.10;78.40;;;;;;4861512;29;20127;-78
2023/10/21 02:18:23;;;;;;;14.10;3.65;;;24.00;78.50;;;;;;4876767;29;20073;-80
2023/10/21 02:20:51;;;;;;;12.98;3.38;;;24.00;78.10;;;;;;4892056;29;20032;-79
2023/10/21 02:23:17;;;;;;;16.38;3.70;;;24.00;78.50;;;;;;4881224;29;20103;-78
2023/10/21 02:25:43;;;;;;;15.48;4.32;;;23.90;78.70;;;;;;4898070;29;20484;-78
2023/10/21 02:28:14;;;;;;;12.95;4.03;;;23.80;78.90;;;;;;4897923;29;20040;-82
2023/10/21 02:30:42;;;;;;;11.02;3.70;;;23.80;78.90;;;;;;4880362;29;20552;-79
2023/10/21 02:33:08;;;;;;;12.10;3.75;;;23.80;78.90;;;;;;4865314;29;20041;-80
2023/10/21 02:35:34;;;;;;;11.38;3.60;;;23.70;78.90;;;;;;4897618;29;20127;-80
2023/10/21 02:38:00;;;;;;;15.10;3.65;;;23.70;79.20;;;;;;4897778;29;20036;-78
2023/10/21 02:40:26;;;;;;;11.93;3.75;;;23.70;79.20;;;;;;4862522;29;20401;-80
2023/10/21 02:42:52;;;;;;;18.85;4.45;;;23.60;79.80;;;;;;4861811;29;20025;-78
2023/10/21 02:45:19;;;;;;;13.85;3.88;;;23.60;79.40;;;;;;4878987;29;20040;-78
2023/10/21 02:47:48;;;;;;;19.13;4.30;;;23.60;80.00;;;;;;4878628;29;20025;-81
2023/10/21 02:50:18;;;;;;;16.10;4.25;;;23.60;79.90;;;;;;4861930;29;20033;-80
2023/10/21 02:52:46;;;;;;;19.73;3.70;;;23.50;80.00;;;;;;4878864;29;20096;-77
2023/10/21 02:55:11;;;;;;;9.38;3.70;;;23.50;80.20;;;;;;4878539;29;20037;-81
2023/10/21 02:57:37;;;;;;;10.55;3.40;;;23.50;80.60;;;;;;4878745;29;20077;-78
2023/10/21 03:00:05;;;;;;;12.82;4.50;;;23.50;80.80;;;;;;4861917;29;20071;-83
2023/10/21 03:02:31;;;;;;;13.73;4.95;;;23.40;80.70;;;;;;4878110;29;20516;-82
2023/10/21 03:04:58;;;;;;;10.25;4.60;;;23.40;80.50;;;;;;4878823;29;20061;-78
2023/10/21 03:07:24;;;;;;;10.63;4.07;;;23.40;80.70;;;;;;4861731;29;20033;-80
2023/10/21 03:09:50;;;;;;;10.38;3.88;;;23.40;81.40;;;;;;4878636;29;20060;-77
2023/10/21 03:12:16;;;;;;;11.63;3.80;;;23.30;81.20;;;;;;4878637;29;20033;-79
2023/10/21 03:14:42;;;;;;;14.77;5.18;;;23.30;81.30;;;;;;4862076;29;20059;-80
2023/10/21 03:17:08;;;;;;;14.80;4.85;;;23.30;81.40;;;;;;4861405;29;20068;-81
2023/10/21 03:19:33;;;;;;;13.05;4.03;;;23.30;81.20;;;;;;4877532;29;20101;-81
2023/10/21 03:21:59;;;;;;;13.32;5.82;;;23.30;81.30;;;;;;4861668;29;20044;-78
2023/10/21 03:24:25;;;;;;;17.83;5.03;;;23.30;81.40;;;;;;4878385;29;20058;-78
2023/10/21 03:26:51;;;;;;;24.88;5.30;;;23.30;81.50;;;;;;4846370;29;20508;-78
2023/10/21 03:29:17;;;;;;;14.88;4.68;;;23.30;81.70;;;;;;4878277;29;20028;-78
2023/10/21 03:31:42;;;;;;;13.23;4.30;;;23.20;81.90;;;;;;4861308;29;20033;-78
2023/10/21 03:34:08;;;;;;;17.17;4.13;;;23.30;81.90;;;;;;4861419;29;20524;-77
2023/10/21 03:36:34;;;;;;;14.75;4.07;;;23.20;82.40;;;;;;4878419;29;20033;-80
2023/10/21 03:39:00;;;;;;;14.85;4.07;;;23.20;81.90;;;;;;4870697;29;20052;-81
2023/10/21 03:41:26;;;;;;;13.10;4.03;;;23.20;81.90;;;;;;4843315;29;20034;-81
2023/10/21 03:43:53;;;;;;;13.48;4.15;;;23.20;82.20;;;;;;4842928;29;20446;-81
2023/10/21 03:46:20;;;;;;;9.25;3.33;;;23.20;82.30;;;;;;4860112;29;20029;-81
2023/10/21 03:48:46;;;;;;;21.27;4.03;;;23.20;82.50;;;;;;4859346;29;20150;-78
2023/10/21 03:51:17;;;;;;;9.18;3.80;;;23.10;82.40;;;;;;4842897;29;20124;-81
2023/10/21 03:53:43;;;;;;;17.55;4.82;;;23.10;82.40;;;;;;4859840;29;20512;-81
2023/10/21 03:56:10;;;;;;;9.07;3.30;;;23.10;82.70;;;;;;4864127;29;20508;-77
2023/10/21 03:58:36;;;;;;;12.38;4.22;;;23.10;83.60;;;;;;4878238;29;20042;-83
2023/10/21 04:01:02;;;;;;;13.38;4.03;;;23.00;83.20;;;;;;4877839;29;20100;-81
2023/10/21 04:03:29;;;;;;;13.30;4.20;;;23.00;83.60;;;;;;4877881;29;20037;-82
2023/10/21 04:05:56;;;;;;;17.88;5.15;;;23.00;83.70;;;;;;4878016;29;20035;-79
2023/10/21 04:08:23;;;;;;;19.80;5.07;;;22.90;83.60;;;;;;4878251;29;20064;-78
2023/10/21 04:10:49;;;;;;;14.73;4.20;;;22.90;84.00;;;;;;4860775;29;20073;-80
2023/10/21 04:13:15;;;;;;;14.55;4.18;;;22.90;83.80;;;;;;4861312;29;20033;-78
2023/10/21 04:15:42;;;;;;;17.48;4.88;;;22.80;84.80;;;;;;4878064;29;20045;-77
2023/10/21 04:18:08;;;;;;;16.02;4.20;;;22.80;84.70;;;;;;4877607;29;20482;-80
2023/10/21 04:20:34;;;;;;;12.68;3.88;;;22.80;84.40;;;;;;4878250;29;20056;-77
2023/10/21 04:23:00;;;;;;;16.80;4.25;;;22.80;84.50;;;;;;4877708;29;20097;-77
2023/10/21 04:25:27;;;;;;;11.80;3.97;;;22.80;84.20;;;;;;4878066;29;20029;-79
2023/10/21 04:27:53;;;;;;;13.55;4.35;;;22.80;84.80;;;;;;4877927;29;20041;-76
2023/10/21 04:30:19;;;;;;;12.07;3.88;;;22.80;84.90;;;;;;4879135;29;20025;-77
2023/10/21 04:32:45;;;;;;;13.88;3.80;;;22.80;85.10;;;;;;4880883;29;20044;-79
2023/10/21 04:35:10;;;;;;;15.98;3.78;;;22.80;85.30;;;;;;4864591;29;20393;-79
2023/10/21 04:37:37;;;;;;;10.90;3.72;;;22.80;85.80;;;;;;4881241;29;20393;-78
2023/10/21 04:40:03;;;;;;;12.95;3.88;;;22.80;85.20;;;;;;4880928;29;20136;-79
2023/10/21 04:42:29;;;;;;;15.88;4.55;;;22.90;84.40;;;;;;4864543;29;20036;-79
2023/10/21 04:44:55;;;;;;;9.80;3.60;;;22.90;84.60;;;;;;4880893;29;20037;-78
2023/10/21 04:47:21;;;;;;;12.73;3.78;;;22.90;84.60;;;;;;4881245;29;20053;-81
2023/10/21 04:49:47;;;;;;;19.30;5.22;;;23.00;84.80;;;;;;4864129;29;20487;-83
2023/10/21 04:52:15;;;;;;;15.95;4.35;;;22.90;85.20;;;;;;4880427;29;20036;-78
2023/10/21 04:54:42;;;;;;;18.13;4.55;;;22.80;85.30;;;;;;4880713;29;20533;-80
2023/10/21 04:57:08;;;;;;;7.75;3.67;;;22.80;85.80;;;;;;4880583;29;20037;-80
2023/10/21 04:59:34;;;;;;;14.38;4.35;;;22.70;85.70;;;;;;4880769;29;20051;-80
2023/10/21 05:02:00;;;;;;;11.48;3.85;;;22.70;85.80;;;;;;4880224;29;20057;-77
2023/10/21 05:04:26;;;;;;;15.52;4.32;;;22.70;86.00;;;;;;4880579;29;20029;-80
2023/10/21 05:06:52;;;;;;;20.55;4.80;;;22.70;86.00;;;;;;4880601;29;20101;-79
2023/10/21 05:09:19;;;;;;;11.57;3.92;;;22.70;86.40;;;;;;4880709;29;20037;-80
2023/10/21 05:11:45;;;;;;;15.10;3.97;;;22.80;86.40;;;;;;4880475;29;20105;-76
2023/10/21 05:14:11;;;;;;;9.98;3.85;;;22.80;86.80;;;;;;4880772;29;20036;-81
2023/10/21 05:16:37;;;;;;;14.23;4.45;;;22.70;86.80;;;;;;4880397;29;20438;-81
2023/10/21 05:19:04;;;;;;;11.88;3.95;;;22.70;86.90;;;;;;4880330;29;20052;-77
2023/10/21 05:21:31;;;;;;;17.80;3.70;;;22.70;87.50;;;;;;4880283;29;20477;-79
2023/10/21 05:23:58;;;;;;;14.27;4.60;;;22.70;87.40;;;;;;4881655;29;20029;-78
2023/10/21 05:26:27;;;;;;;21.38;5.22;;;22.60;88.00;;;;;;4880399;29;20496;-78
2023/10/21 05:28:52;;;;;;;16.70;3.92;;;22.60;87.80;;;;;;4880251;29;20033;-79
2023/10/21 05:31:18;;;;;;;18.30;4.22;;;22.60;88.00;;;;;;4880392;29;20082;-81
2023/10/21 05:33:44;;;;;;;8.80;3.03;;;22.60;88.00;;;;;;4879948;29;20493;-79
2023/10/21 05:36:10;;;;;;;10.98;3.22;;;22.60;88.70;;;;;;4880351;29;20092;-79
2023/10/21 05:38:36;;;;;;;11.30;4.03;;;22.50;88.50;;;;;;4880033;29;20072;-80
2023/10/21 05:41:02;;;;;;;16.13;4.05;;;22.50;88.70;;;;;;4879966;29;20478;-80
2023/10/21 05:43:28;;;;;;;13.27;3.70;;;22.60;88.30;;;;;;4851329;29;20057;-81
2023/10/21 05:45:54;;;;;;;10.95;3.80;;;22.70;88.20;;;;;;4873738;29;20022;-80
2023/10/21 05:48:20;;;;;;;11.18;3.85;;;22.80;88.00;;;;;;4872484;29;20037;-81
2023/10/21 05:50:47;;;;;;;18.55;4.72;;;22.90;87.50;;;;;;4867537;29;20351;-80
2023/10/21 05:53:13;;;;;;;12.10;3.90;;;23.00;87.10;;;;;;4867669;29;20104;-79
2023/10/21 05:55:47;;;;;;;18.63;4.15;;;23.20;86.70;;;;;;4856546;29;20029;-82
2023/10/21 05:58:13;;;;;;;16.63;4.32;;;23.20;86.60;;;;;;4872626;29;20145;-82
2023/10/21 06:00:39;;;;;;;12.80;3.58;;;23.30;86.00;;;;;;4868459;29;20134;-82
2023/10/21 06:03:08;;;;;;;8.20;3.20;;;23.50;85.90;;;;;;4867183;29;20505;-77
2023/10/21 06:05:33;;;;;;;14.07;3.13;;;23.60;85.30;;;;;;4871090;29;20227;-78
2023/10/21 06:07:59;;;;;;;16.50;4.38;;;23.60;85.30;;;;;;4877663;29;20076;-78
2023/10/21 06:10:25;;;;;;;13.20;3.72;;;23.70;84.60;;;;;;4879738;29;20025;-81
2023/10/21 06:12:51;;;;;;;10.50;3.75;;;23.70;84.40;;;;;;4879809;29;20263;-80
2023/10/21 06:15:17;;;;;;;11.15;3.80;;;23.80;84.40;;;;;;4879741;29;20477;-82
2023/10/21 06:17:43;;;;;;;17.55;4.03;;;23.80;84.50;;;;;;4879282;29;20025;-82
2023/10/21 06:20:09;;;;;;;13.75;4.00;;;23.80;84.50;;;;;;4875698;29;20041;-82
2023/10/21 06:22:37;;;;;;;16.13;4.70;;;23.80;84.30;;;;;;4868467;29;20097;-78
2023/10/21 06:25:04;;;;;;;21.15;4.40;;;23.80;84.20;;;;;;4862926;29;20055;-79
2023/10/21 06:27:30;;;;;;;7.97;3.88;;;23.80;84.50;;;;;;4873191;29;20025;-77
2023/10/21 06:29:56;;;;;;;15.40;3.75;;;23.90;84.40;;;;;;4872964;29;20033;-78
2023/10/21 06:32:22;;;;;;;11.75;4.22;;;23.90;84.30;;;;;;4866584;29;20501;-77
2023/10/21 06:34:48;;;;;;;10.23;4.07;;;23.90;84.00;;;;;;4866581;29;20089;-78
2023/10/21 06:37:13;;;;;;;13.90;3.80;;;24.00;83.90;;;;;;4864109;29;20029;-78
2023/10/21 06:39:40;;;;;;;10.40;3.35;;;24.00;84.50;;;;;;4867914;29;20439;-80
2023/10/21 06:42:06;;;;;;;10.88;3.33;;;24.00;83.90;;;;;;4871073;29;20029;-80
2023/10/21 06:44:32;;;;;;;19.10;4.03;;;24.00;84.30;;;;;;4874230;29;20077;-78
2023/10/21 06:46:58;;;;;;;14.13;3.85;;;24.00;84.30;;;;;;4860781;29;20037;-76
2023/10/21 06:49:23;;;;;;;10.98;3.60;;;24.00;84.10;;;;;;4842374;29;20128;-76
2023/10/21 06:51:58;;;;;;;12.52;4.50;;;24.00;84.40;;;;;;4872796;29;20032;-82
2023/10/21 06:54:24;;;;;;;16.27;3.95;;;24.00;84.70;;;;;;4858433;29;20466;-84
2023/10/21 06:56:50;;;;;;;12.85;3.85;;;24.10;84.50;;;;;;4872004;29;20064;-81
2023/10/21 06:59:16;;;;;;;13.15;3.45;;;24.00;84.50;;;;;;4869646;29;20041;-80
2023/10/21 07:01:42;;;;;;;12.95;3.70;;;24.00;84.50;;;;;;4830748;29;20060;-79
2023/10/21 07:04:11;;;;;;;17.85;3.60;;;24.10;84.60;;;;;;4868436;29;20029;-82
2023/10/21 07:06:38;;;;;;;18.95;4.85;;;24.10;84.10;;;;;;4851556;29;20029;-82
2023/10/21 07:09:04;;;;;;;16.70;3.55;;;24.20;84.00;;;;;;4870899;29;20124;-81
2023/10/21 07:11:30;;;;;;;10.82;3.10;;;24.20;83.80;;;;;;4852266;29;20041;-80
2023/10/21 07:13:56;;;;;;;7.72;3.28;;;24.30;84.00;;;;;;4878408;29;20036;-81
2023/10/21 07:16:22;;;;;;;13.85;3.92;;;24.30;84.50;;;;;;4869034;29;20025;-80
2023/10/21 07:18:50;;;;;;;10.90;3.30;;;24.30;84.10;;;;;;4871893;29;20393;-81
2023/10/21 07:21:16;;;;;;;15.77;2.95;;;24.30;84.50;;;;;;4857121;29;20037;-82
2023/10/21 07:23:42;;;;;;;14.60;3.58;;;24.30;84.00;;;;;;4854987;29;20178;-83
2023/10/21 07:26:08;;;;;;;13.02;3.40;;;24.30;84.20;;;;;;4877451;29;20036;-84
2023/10/21 07:28:34;;;;;;;14.63;3.50;;;24.30;84.30;;;;;;4860980;29;20043;-79
2023/10/21 07:31:00;;;;;;;9.00;3.13;;;24.30;84.10;;;;;;4866963;29;20124;-80
2023/10/21 07:33:27;;;;;;;10.93;3.10;;;24.40;84.10;;;;;;4855874;29;20307;-82
2023/10/21 07:35:53;;;;;;;5.15;2.67;;;24.50;83.80;;;;;;4860605;29;20040;-76
2023/10/21 07:38:20;;;;;;;11.95;3.97;;;24.50;83.90;;;;;;4877084;29;20488;-80
2023/10/21 07:40:46;;;;;;;8.90;3.55;;;24.50;84.80;;;;;;4872294;29;20100;-78
2023/10/21 07:43:13;;;;;;;11.02;4.05;;;24.60;83.70;;;;;;4859249;29;20038;-77
2023/10/21 07:45:42;;;;;;;15.77;3.55;;;24.60;83.50;;;;;;4843392;29;20120;-76
2023/10/21 07:48:09;;;;;;;15.10;3.70;;;24.60;83.30;;;;;;4844670;29;20042;-80
2023/10/21 07:50:35;;;;;;;10.95;3.33;;;24.70;82.90;;;;;;4844894;29;20057;-80
2023/10/21 07:53:01;;;;;;;10.57;3.63;;;24.70;83.50;;;;;;4870206;29;20528;-82
2023/10/21 07:55:28;;;;;;;15.15;4.32;;;24.70;82.60;;;;;;4855255;29;20029;-82
2023/10/21 07:57:55;;;;;;;10.98;3.45;;;24.70;82.90;;;;;;4867081;29;20508;-83
2023/10/21 08:00:21;;;;;;;12.40;3.72;;;24.70;82.60;;;;;;4865581;29;20459;-80
2023/10/21 08:02:46;;;;;;;11.90;3.20;;;24.70;83.10;;;;;;4875290;29;20041;-83
2023/10/21 08:05:13;;;;;;;16.90;4.82;;;24.70;83.30;;;;;;4875197;29;20485;-83
2023/10/21 08:07:39;;;;;;;16.08;5.53;;;24.70;83.50;;;;;;4866365;29;20072;-79
2023/10/21 08:10:05;;;;;;;18.38;4.80;;;24.60;83.00;;;;;;4865731;29;20033;-82
2023/10/21 08:12:35;;;;;;;13.60;4.60;;;24.70;83.50;;;;;;4870762;29;20385;-77
2023/10/21 08:15:05;;;;;;;11.52;4.93;;;24.70;83.50;;;;;;4880355;29;20460;-78
2023/10/21 08:17:31;;;;;;;14.63;4.15;;;24.70;83.10;;;;;;4846008;29;20041;-80
2023/10/21 08:19:57;;;;;;;12.43;4.30;;;24.70;83.60;;;;;;4874663;29;20053;-82
2023/10/21 08:22:23;;;;;;;11.30;4.07;;;24.70;83.70;;;;;;4890248;29;20397;-82
2023/10/21 08:24:48;;;;;;;12.32;4.20;;;24.70;83.30;;;;;;4881440;29;20033;-81
2023/10/21 08:27:15;;;;;;;12.30;5.28;;;24.70;83.60;;;;;;4881299;29;20033;-80
2023/10/21 08:29:42;;;;;;;12.35;4.28;;;24.70;83.60;;;;;;4881291;29;20052;-78
2023/10/21 08:32:07;;;;;;;10.98;4.07;;;24.70;83.50;;;;;;4864391;29;20066;-81
2023/10/21 08:34:36;;;;;;;14.88;4.78;;;24.70;84.00;;;;;;4881114;29;20041;-79
2023/10/21 08:37:03;;;;;;;14.35;4.85;;;24.80;83.90;;;;;;4853595;29;20064;-79
2023/10/21 08:39:30;;;;;;;12.00;3.95;;;24.80;84.60;;;;;;4880689;29;20052;-79
2023/10/21 08:41:55;;;;;;;16.10;5.35;;;24.80;83.90;;;;;;4875481;29;20032;-81
2023/10/21 08:44:23;;;;;;;11.98;4.07;;;24.80;84.00;;;;;;4863061;29;20029;-81
2023/10/21 08:46:51;;;;;;;17.98;4.07;;;24.80;84.10;;;;;;4862574;29;20037;-80
2023/10/21 08:49:19;;;;;;;12.77;4.28;;;24.80;84.10;;;;;;4861973;29;20051;-83
2023/10/21 08:51:47;;;;;;;17.27;4.57;;;24.80;84.20;;;;;;4878586;29;20032;-81
2023/10/21 08:54:14;;;;;;;16.48;6.43;;;24.80;83.70;;;;;;4880051;29;20060;-81
2023/10/21 08:56:40;;;;;;;13.27;4.88;;;24.80;84.30;;;;;;4880562;29;20409;-81
2023/10/21 08:59:06;;;;;;;9.73;3.50;;;24.80;84.20;;;;;;4880646;29;20033;-82
2023/10/21 09:01:36;;;;;;;10.38;3.92;;;24.70;84.70;;;;;;4847706;29;20064;-82
2023/10/21 09:04:03;;;;;;;14.60;4.13;;;24.60;84.00;;;;;;4874878;29;20438;-77
2023/10/21 09:06:30;;;;;;;13.10;3.55;;;24.60;84.50;;;;;;4870006;29;20025;-78
2023/10/21 09:08:56;;;;;;;13.52;4.63;;;24.60;84.90;;;;;;4897477;29;20020;-77
2023/10/21 09:11:28;;;;;;;22.73;4.50;;;24.50;85.00;;;;;;4896914;29;20044;-80
2023/10/21 09:13:58;;;;;;;18.40;5.25;;;24.50;84.70;;;;;;4880612;29;20025;-80
2023/10/21 09:16:29;;;;;;;14.02;4.90;;;24.50;85.00;;;;;;4863627;29;20029;-79
2023/10/21 09:18:59;;;;;;;16.90;5.95;;;24.40;85.50;;;;;;4880509;29;20048;-83
2023/10/21 09:21:38;;;;;;;12.65;4.82;;;24.30;86.00;;;;;;4879991;29;20486;-80
2023/10/21 09:24:09;;;;;;;14.25;5.20;;;24.30;86.60;;;;;;4880655;29;20125;-78
2023/10/21 09:26:37;;;;;;;12.63;4.63;;;24.30;87.40;;;;;;4873225;29;20030;-78
2023/10/21 09:29:11;;;;;;;16.10;6.38;;;24.10;87.20;;;;;;4879774;29;20493;-79
2023/10/21 09:31:53;;;;;;;16.77;6.18;;;24.10;88.00;;;;;;4882816;29;20029;-82
2023/10/21 09:34:24;;;;;;;22.85;5.20;;;24.10;89.40;;;;;;4860392;29;20085;-81
2023/10/21 09:36:52;;;;;;;13.98;4.88;;;24.00;89.30;;;;;;4879161;29;20043;-85
2023/10/21 09:39:18;;;;;;;18.65;5.68;;;24.00;89.60;;;;;;4880653;29;20056;-81
2023/10/21 09:41:45;;;;;;;10.90;4.75;;;24.00;89.50;;;;;;4866040;29;20040;-81
2023/10/21 09:44:13;;;;;;;15.18;6.88;;;23.90;89.70;;;;;;4846453;29;20481;-81
2023/10/21 09:46:40;;;;;;;12.98;4.82;;;23.80;89.80;;;;;;4848611;29;20025;-80
2023/10/21 09:49:08;;;;;;;13.93;5.47;;;23.80;89.80;;;;;;4881958;29;20025;-80
2023/10/21 09:51:40;;;;;;;15.00;6.05;;;23.80;90.00;;;;;;4857374;29;20040;-84
2023/10/21 09:54:11;;;;;;;17.00;5.55;;;23.70;90.10;;;;;;4848049;29;20037;-81
2023/10/21 09:56:39;;;;;;;14.70;4.90;;;23.70;90.10;;;;;;4853849;29;20048;-83
2023/10/21 09:59:05;;;;;;;19.38;5.35;;;23.70;90.00;;;;;;4879474;29;20040;-80
2023/10/21 10:01:33;;;;;;;17.55;5.90;;;23.70;90.30;;;;;;4862380;29;20061;-84
2023/10/21 10:04:01;;;;;;;20.63;6.75;;;23.70;90.30;;;;;;4879786;29;20109;-78
2023/10/21 10:06:28;;;;;;;19.35;7.35;;;23.70;90.30;;;;;;4863422;29;20477;-79
2023/10/21 10:08:55;;;;;;;14.95;6.47;;;23.70;90.50;;;;;;4881279;29;20033;-83
2023/10/21 10:11:24;;;;;;;20.52;4.93;;;23.70;90.80;;;;;;4862039;29;20040;-78
2023/10/21 10:13:50;;;;;;;16.02;5.38;;;23.70;91.20;;;;;;4875398;29;20031;-77
2023/10/21 10:16:25;;;;;;;22.27;6.68;;;23.70;90.90;;;;;;4878594;29;20040;-78
2023/10/21 10:18:55;;;;;;;16.42;5.88;;;23.60;91.20;;;;;;4869668;29;20185;-78
2023/10/21 10:21:21;;;;;;;20.13;8.63;;;23.70;91.30;;;;;;4860628;29;20385;-78
2023/10/21 10:23:53;;;;;;;28.33;9.00;;;23.70;91.20;;;;;;4860539;29;20033;-81
2023/10/21 10:26:38;;;;;;;20.10;7.57;;;23.60;91.30;;;;;;4860838;29;20037;-80
2023/10/21 10:29:26;;;;;;;18.67;7.03;;;23.60;91.90;;;;;;4858623;29;20029;-77
2023/10/21 10:32:11;;;;;;;23.95;6.97;;;23.60;92.20;;;;;;4878730;29;20033;-80
2023/10/21 10:34:52;;;;;;;20.73;5.88;;;23.50;92.60;;;;;;4869511;29;20100;-77
2023/10/21 10:37:34;;;;;;;17.98;6.22;;;23.50;93.30;;;;;;4878562;29;20036;-78
2023/10/21 10:40:15;;;;;;;26.42;6.13;;;23.40;93.30;;;;;;4846356;29;20071;-78
2023/10/21 10:42:41;;;;;;;17.08;6.40;;;23.40;93.90;;;;;;4878405;29;20024;-77
2023/10/21 10:45:07;;;;;;;25.80;7.55;;;23.40;94.10;;;;;;4879103;29;20033;-78
2023/10/21 10:47:33;;;;;;;21.90;7.47;;;23.50;93.80;;;;;;4861665;29;20096;-77
2023/10/21 10:50:00;;;;;;;21.27;8.65;;;23.60;93.90;;;;;;4862214;29;20377;-77
2023/10/21 10:52:33;;;;;;;22.00;7.03;;;23.60;93.50;;;;;;4877181;29;20381;-77
2023/10/21 10:55:03;;;;;;;23.42;7.40;;;23.80;94.30;;;;;;4878751;29;20397;-76
2023/10/21 10:57:29;;;;;;;21.63;7.30;;;24.10;94.60;;;;;;4878212;29;20029;-79
2023/10/21 10:59:56;;;;;;;16.85;6.88;;;24.30;94.60;;;;;;4878500;29;20073;-80
2023/10/21 11:02:24;;;;;;;18.33;6.63;;;24.50;94.20;;;;;;4878282;29;20065;-80
2023/10/21 11:04:50;;;;;;;16.58;6.95;;;24.60;93.90;;;;;;4877688;29;20120;-78
2023/10/21 11:07:17;;;;;;;21.52;8.05;;;24.70;93.90;;;;;;4878381;29;20108;-77
2023/10/21 11:09:43;;;;;;;20.88;6.28;;;24.80;93.60;;;;;;4877891;29;20528;-78
2023/10/21 11:12:09;;;;;;;18.38;7.50;;;24.80;92.00;;;;;;4877743;29;20033;-78
2023/10/21 11:14:35;;;;;;;17.80;8.45;;;24.80;92.50;;;;;;4878225;29;20032;-83
2023/10/21 11:17:02;;;;;;;24.50;8.88;;;24.70;93.10;;;;;;4878114;29;20040;-77
2023/10/21 11:19:28;;;;;;;19.13;7.95;;;24.70;92.80;;;;;;4868720;29;20500;-77
2023/10/21 11:21:54;;;;;;;21.35;7.78;;;24.70;93.00;;;;;;4861076;29;20017;-81
2023/10/21 11:24:20;;;;;;;24.10;10.35;;;24.60;92.40;;;;;;4878240;29;20459;-78
2023/10/21 11:26:49;;;;;;;32.50;8.65;;;24.50;92.50;;;;;;4877333;29;20044;-78
2023/10/21 11:29:17;;;;;;;23.45;6.95;;;24.40;92.80;;;;;;4877210;29;20045;-78
2023/10/21 11:31:43;;;;;;;18.55;7.22;;;24.20;92.20;;;;;;4877459;29;20036;-79
2023/10/21 11:34:17;;;;;;;22.23;5.97;;;24.20;92.40;;;;;;4877670;29;20101;-79
2023/10/21 11:36:46;;;;;;;22.48;6.97;;;24.10;92.10;;;;;;4877835;29;20108;-76
2023/10/21 11:39:14;;;;;;;24.00;7.25;;;24.00;92.00;;;;;;4877805;29;20171;-74
2023/10/21 11:41:45;;;;;;;30.60;7.95;;;23.90;91.20;;;;;;4881616;29;20084;-74
2023/10/21 11:44:12;;;;;;;27.13;8.55;;;23.90;90.90;;;;;;4881834;29;20108;-76
2023/10/21 11:46:38;;;;;;;24.40;8.32;;;23.80;90.00;;;;;;4882161;29;20449;-76
2023/10/21 11:49:04;;;;;;;25.95;7.63;;;23.80;89.30;;;;;;4881689;29;20035;-76
2023/10/21 11:51:32;;;;;;;25.90;7.28;;;23.80;90.10;;;;;;4881791;29;20089;-77
2023/10/21 11:53:58;;;;;;;26.25;7.53;;;23.80;89.10;;;;;;4881811;29;20029;-76
2023/10/21 12:26:19;;;;;;;32.47;9.43;;;23.50;87.50;;;;;;4880933;29;20450;-77
2023/10/21 12:41:54;;;;;;;21.80;8.20;;;23.50;82.60;;;;;;4829011;29;20069;-72
2023/10/21 12:44:23;;;;;;;21.13;8.02;;;23.50;82.80;;;;;;4842720;29;20044;-75
2023/10/21 12:46:58;;;;;;;21.13;7.47;;;23.50;81.90;;;;;;4837893;29;20034;-72
2023/10/21 12:49:25;;;;;;;22.77;8.07;;;23.50;82.00;;;;;;4811312;29;20117;-75
2023/10/21 12:51:55;;;;;;;31.73;7.57;;;23.50;81.00;;;;;;4842207;29;20053;-75
2023/10/21 12:54:21;;;;;;;24.08;6.72;;;23.60;80.90;;;;;;4842116;29;20102;-76
2023/10/21 12:56:49;;;;;;;21.33;7.25;;;23.60;81.20;;;;;;4842738;29;20042;-77
2023/10/21 12:59:19;;;;;;;24.33;7.97;;;23.60;81.80;;;;;;4841021;29;20046;-78
2023/10/21 13:01:46;;;;;;;28.05;8.23;;;23.60;81.40;;;;;;4825633;29;20098;-76
2023/10/21 13:04:13;;;;;;;25.00;7.35;;;23.60;81.60;;;;;;4838984;29;20034;-76
2023/10/21 13:06:42;;;;;;;19.23;6.75;;;23.60;81.40;;;;;;4842462;29;20034;-75
2023/10/21 13:09:24;;;;;;;21.92;7.07;;;23.60;81.10;;;;;;4826340;29;20129;-75
2023/10/21 13:11:53;;;;;;;21.50;7.57;;;23.60;81.80;;;;;;4842237;29;20489;-74
2023/10/21 13:14:20;;;;;;;21.25;8.05;;;23.60;81.20;;;;;;4841446;29;20072;-75
2023/10/21 13:16:47;;;;;;;21.60;7.68;;;23.60;81.20;;;;;;4863016;29;20070;-77
2023/10/21 13:19:14;;;;;;;24.95;7.93;;;23.60;81.00;;;;;;4868967;29;20069;-75
2023/10/21 13:21:40;;;;;;;25.92;9.05;;;23.60;80.60;;;;;;4878246;29;20032;-74